createdAt,value
2019-05-09T00:02:13.212Z,97907.08
2019-05-09T00:05:03.786Z,97919.07
2019-05-09T00:07:54.914Z,97902.43
2019-05-09T00:10:45.879Z,97896.66
2019-05-09T00:13:37.137Z,97904.48
2019-05-09T00:16:28.115Z,97901.28
2019-05-09T00:19:19.147Z,97901.62
2019-05-09T00:22:10.383Z,97906.62
2019-05-09T00:25:03.263Z,97902.81
2019-05-09T00:27:54.096Z,97902.15
2019-05-09T00:31:03.403Z,97905.52
2019-05-09T00:33:58.210Z,97904.24
2019-05-09T00:36:48.423Z,97893.68
2019-05-09T00:39:38.677Z,97895.30
2019-05-09T00:42:29.699Z,97887.13
2019-05-09T00:45:30.374Z,97882.19
2019-05-09T00:48:24.616Z,97881.55
2019-05-09T00:51:14.765Z,97880.59
2019-05-09T00:54:05.372Z,97876.44
2019-05-09T00:56:55.829Z,97875.97
2019-05-09T00:59:46.624Z,97871.98
2019-05-09T01:02:38.065Z,97867.50
2019-05-09T01:05:30.420Z,97878.23
2019-05-09T01:08:24.069Z,97867.51
2019-05-09T01:11:15.608Z,97857.11
2019-05-09T01:14:07.050Z,97863.48
2019-05-09T01:16:58.123Z,97852.43
2019-05-09T01:19:49.527Z,97855.16
2019-05-09T01:22:40.250Z,97855.31
2019-05-09T01:25:33.543Z,97866.49
2019-05-09T01:28:24.884Z,97864.06
2019-05-09T01:31:15.534Z,97858.64
2019-05-09T01:34:28.132Z,97863.88
2019-05-09T01:37:19.144Z,97865.92
2019-05-09T01:40:10.431Z,97867.84
2019-05-09T01:43:01.747Z,97870.73
2019-05-09T01:45:54.024Z,97869.42
2019-05-09T01:48:45.121Z,97871.48
2019-05-09T01:51:36.254Z,97879.47
2019-05-09T01:54:28.281Z,97878.66
2019-05-09T01:57:19.472Z,97874.03
2019-05-09T02:00:13.152Z,97872.56
2019-05-09T02:03:03.664Z,97874.97
2019-05-09T02:05:55.202Z,97870.47
2019-05-09T02:08:46.387Z,97868.04
2019-05-09T02:11:42.545Z,97873.13
2019-05-09T02:14:37.283Z,97872.00
2019-05-09T02:17:57.334Z,97866.20
2019-05-09T02:20:35.818Z,97870.34
2019-05-09T02:23:27.067Z,97867.75
2019-05-09T02:26:17.419Z,97872.27
2019-05-09T02:29:09.593Z,97869.20
2019-05-09T02:31:59.957Z,97875.77
2019-05-09T02:34:50.615Z,97875.14
2019-05-09T02:37:41.896Z,97877.69
2019-05-09T02:40:33.148Z,97881.54
2019-05-09T02:43:23.500Z,97878.81
2019-05-09T02:46:21.432Z,97879.13
2019-05-09T02:49:11.975Z,97883.92
2019-05-09T02:52:03.174Z,97881.67
2019-05-09T02:54:53.374Z,97882.04
2019-05-09T02:57:45.279Z,97885.08
2019-05-09T03:00:44.474Z,97885.55
2019-05-09T03:03:39.326Z,97880.30
2019-05-09T03:06:29.950Z,97883.82
2019-05-09T03:09:20.158Z,97885.58
2019-05-09T03:12:26.012Z,97888.27
2019-05-09T03:15:02.676Z,97889.55
2019-05-09T03:17:53.886Z,97891.45
2019-05-09T03:20:58.539Z,97892.72
2019-05-09T03:23:49.981Z,97887.45
2019-05-09T03:26:42.305Z,97882.18
2019-05-09T03:29:41.414Z,97885.21
2019-05-09T03:32:32.725Z,97884.26
2019-05-09T03:35:23.114Z,97879.78
2019-05-09T03:38:14.456Z,97880.73
2019-05-09T03:41:04.996Z,97879.97
2019-05-09T03:43:58.366Z,97881.90
2019-05-09T03:47:00.772Z,97876.03
2019-05-09T03:50:08.792Z,97874.55
2019-05-09T03:52:58.913Z,97874.37
2019-05-09T03:55:50.791Z,97875.97
2019-05-09T03:58:42.161Z,97879.34
2019-05-09T04:01:32.867Z,97884.48
2019-05-09T04:04:24.306Z,97882.23
2019-05-09T04:07:15.168Z,97878.88
2019-05-09T04:10:07.762Z,97884.16
2019-05-09T04:12:59.722Z,97879.98
2019-05-09T04:15:50.360Z,97877.42
2019-05-09T04:18:40.635Z,97869.30
2019-05-09T04:21:30.951Z,97877.47
2019-05-09T04:24:23.036Z,97873.93
2019-05-09T04:27:19.123Z,97874.91
2019-05-09T04:30:09.573Z,97873.49
2019-05-09T04:33:01.057Z,97867.91
2019-05-09T04:35:51.350Z,97859.59
2019-05-09T04:38:41.950Z,97865.68
2019-05-09T04:41:32.509Z,97862.66
2019-05-09T04:44:34.759Z,97864.11
2019-05-09T04:47:25.011Z,97863.12
2019-05-09T04:50:23.608Z,97861.37
2019-05-09T04:53:08.624Z,97857.89
2019-05-09T04:56:04.724Z,97860.90
2019-05-09T04:58:58.173Z,97860.14
2019-05-09T05:01:58.221Z,97865.71
2019-05-09T05:04:50.578Z,97859.80
2019-05-09T05:07:41.965Z,97865.55
2019-05-09T05:10:32.529Z,97870.22
2019-05-09T05:13:26.778Z,97873.42
2019-05-09T05:16:18.297Z,97870.88
2019-05-09T05:19:08.159Z,97873.16
2019-05-09T05:22:07.512Z,97882.11
2019-05-09T05:25:00.258Z,97874.03
2019-05-09T05:27:50.371Z,97871.50
2019-05-09T05:30:41.099Z,97869.63
2019-05-09T05:33:38.804Z,97876.81
2019-05-09T05:36:29.986Z,97875.88
2019-05-09T05:39:20.692Z,97871.78
2019-05-09T05:42:11.993Z,97873.08
2019-05-09T05:45:02.298Z,97872.61
2019-05-09T05:47:57.715Z,97874.09
2019-05-09T05:50:48.828Z,97874.09
2019-05-09T05:53:40.245Z,97871.55
2019-05-09T05:56:31.295Z,97872.23
2019-05-09T05:59:22.318Z,97873.70
2019-05-09T06:02:13.300Z,97872.48
2019-05-09T06:05:03.669Z,97872.34
2019-05-09T06:07:54.646Z,97869.05
2019-05-09T06:10:45.302Z,97869.70
2019-05-09T06:13:37.899Z,97870.55
2019-05-09T06:16:29.714Z,97870.12
2019-05-09T06:19:20.019Z,97868.38
2019-05-09T06:22:11.102Z,97872.39
2019-05-09T06:25:01.863Z,97876.59
2019-05-09T06:27:54.027Z,97872.92
2019-05-09T06:30:47.237Z,97871.84
2019-05-09T06:33:44.966Z,97875.03
2019-05-09T06:36:30.084Z,97879.51
2019-05-09T06:39:21.367Z,97879.67
2019-05-09T06:42:12.326Z,97883.52
2019-05-09T06:45:27.231Z,97883.50
2019-05-09T06:48:18.537Z,97885.06
2019-05-09T06:51:09.606Z,97884.42
2019-05-09T06:54:01.634Z,97887.63
2019-05-09T06:56:52.315Z,97887.92
2019-05-09T06:59:42.645Z,97887.91
2019-05-09T07:02:48.001Z,97885.33
2019-05-09T07:06:13.811Z,97890.78
2019-05-09T07:09:17.470Z,97880.83
2019-05-09T07:12:09.212Z,97875.55
2019-05-09T07:15:00.438Z,97873.93
2019-05-09T07:17:51.988Z,97872.80
2019-05-09T07:20:43.452Z,97867.52
2019-05-09T07:23:33.964Z,97875.50
2019-05-09T07:26:30.241Z,97872.63
2019-05-09T07:29:20.625Z,97871.84
2019-05-09T07:32:15.121Z,97872.66
2019-05-09T07:35:08.658Z,97868.67
2019-05-09T07:37:58.211Z,97859.55
2019-05-09T07:40:48.407Z,97849.50
2019-05-09T07:43:39.871Z,97854.63
2019-05-09T07:46:32.883Z,97859.61
2019-05-09T07:49:23.961Z,97864.09
2019-05-09T07:52:15.487Z,97854.98
2019-05-09T07:55:08.827Z,97855.31
2019-05-09T07:57:59.325Z,97854.98
2019-05-09T08:00:50.518Z,97853.27
2019-05-09T08:03:41.726Z,97854.06
2019-05-09T08:06:33.181Z,97847.36
2019-05-09T08:09:23.602Z,97849.63
2019-05-09T08:12:15.018Z,97851.23
2019-05-09T08:15:13.353Z,97850.75
2019-05-09T08:17:59.283Z,97856.88
2019-05-09T08:20:49.889Z,97848.89
2019-05-09T08:23:40.482Z,97839.47
2019-05-09T08:26:30.805Z,97837.27
2019-05-09T08:29:21.992Z,97834.73
2019-05-09T08:32:13.236Z,97834.74
2019-05-09T08:35:04.510Z,97829.05
2019-05-09T08:37:58.383Z,97829.09
2019-05-09T08:41:08.995Z,97831.38
2019-05-09T08:43:59.114Z,97830.44
2019-05-09T08:46:50.370Z,97829.34
2019-05-09T08:49:59.171Z,97831.63
2019-05-09T08:52:50.139Z,97835.47
2019-05-09T08:55:40.532Z,97829.41
2019-05-09T08:58:31.299Z,97827.97
2019-05-09T09:01:30.536Z,97832.48
2019-05-09T09:04:14.608Z,97830.45
2019-05-09T09:07:08.166Z,97834.95
2019-05-09T09:09:57.970Z,97822.63
2019-05-09T09:12:49.193Z,97828.26
2019-05-09T09:16:05.185Z,97823.47
2019-05-09T09:18:32.040Z,97817.55
2019-05-09T09:21:23.241Z,97810.84
2019-05-09T09:24:14.260Z,97805.54
2019-05-09T09:27:04.775Z,97804.37
2019-05-09T09:29:54.991Z,97799.23
2019-05-09T09:32:47.816Z,97801.13
2019-05-09T09:35:38.467Z,97808.78
2019-05-09T09:38:29.783Z,97802.33
2019-05-09T09:41:20.998Z,97802.95
2019-05-09T09:44:11.863Z,97801.20
2019-05-09T09:47:02.243Z,97793.00
2019-05-09T09:49:55.219Z,97784.17
2019-05-09T09:52:44.985Z,97781.92
2019-05-09T09:55:38.188Z,97778.23
2019-05-09T09:58:28.350Z,97774.41
2019-05-09T10:01:25.079Z,97771.38
2019-05-09T10:04:23.826Z,97767.88
2019-05-09T10:07:09.890Z,97772.08
2019-05-09T10:10:00.991Z,97766.23
2019-05-09T10:12:51.542Z,97762.77
2019-05-09T10:16:05.430Z,97750.77
2019-05-09T10:19:04.046Z,97753.20
2019-05-09T10:21:57.748Z,97753.21
2019-05-09T10:24:48.981Z,97754.50
2019-05-09T10:27:39.539Z,97750.34
2019-05-09T10:30:34.764Z,97750.34
2019-05-09T10:33:28.047Z,97748.30
2019-05-09T10:36:18.401Z,97743.02
2019-05-09T10:39:09.336Z,97737.10
2019-05-09T10:42:02.129Z,97733.42
2019-05-09T10:45:02.528Z,97734.75
2019-05-09T10:47:53.743Z,97736.70
2019-05-09T10:50:46.064Z,97732.05
2019-05-09T10:53:36.690Z,97733.18
2019-05-09T10:56:28.028Z,97731.59
2019-05-09T10:59:19.700Z,97736.08
2019-05-09T11:02:10.960Z,97731.91
2019-05-09T11:05:02.251Z,97730.31
2019-05-09T11:07:53.349Z,97727.27
2019-05-09T11:10:44.604Z,97729.97
2019-05-09T11:13:35.580Z,97732.72
2019-05-09T11:16:41.694Z,97735.09
2019-05-09T11:19:19.854Z,97726.93
2019-05-09T11:22:10.014Z,97726.12
2019-05-09T11:25:01.327Z,97736.19
2019-05-09T11:28:06.859Z,97740.13
2019-05-09T11:30:44.609Z,97741.08
2019-05-09T11:33:38.450Z,97742.34
2019-05-09T11:36:27.801Z,97728.23
2019-05-09T11:39:35.084Z,97734.80
2019-05-09T11:42:10.747Z,97733.65
2019-05-09T11:45:02.015Z,97716.83
2019-05-09T11:47:53.260Z,97716.80
2019-05-09T11:50:43.655Z,97712.75
2019-05-09T11:53:34.942Z,97709.53
2019-05-09T11:56:25.106Z,97706.48
2019-05-09T11:59:18.203Z,97708.24
2019-05-09T12:02:08.905Z,97705.52
2019-05-09T12:05:00.056Z,97700.39
2019-05-09T12:07:51.129Z,97698.78
2019-05-09T12:10:41.444Z,97697.02
2019-05-09T12:13:32.496Z,97692.36
2019-05-09T12:16:23.105Z,97688.20
2019-05-09T12:19:14.384Z,97680.50
2019-05-09T12:22:05.507Z,97665.45
2019-05-09T12:24:58.746Z,97676.52
2019-05-09T12:27:48.928Z,97675.22
2019-05-09T12:30:39.435Z,97672.52
2019-05-09T12:33:32.948Z,97678.73
2019-05-09T12:36:23.182Z,97658.25
2019-05-09T12:39:14.023Z,97653.14
2019-05-09T12:42:04.679Z,97641.01
2019-05-09T12:44:58.782Z,97652.06
2019-05-09T12:47:48.408Z,97657.48
2019-05-09T12:50:39.923Z,97661.36
2019-05-09T12:53:30.817Z,97658.16
2019-05-09T12:56:21.216Z,97656.39
2019-05-09T12:59:12.243Z,97653.83
2019-05-09T13:02:02.394Z,97650.18
2019-05-09T13:04:52.662Z,97653.37
2019-05-09T13:07:43.784Z,97644.76
2019-05-09T13:10:34.238Z,97650.38
2019-05-09T13:13:24.679Z,97653.09
2019-05-09T13:16:47.625Z,97654.06
2019-05-09T13:19:34.851Z,97655.19
2019-05-09T13:22:28.381Z,97664.78
2019-05-09T13:25:19.409Z,97659.69
2019-05-09T13:28:10.711Z,97656.17
2019-05-09T13:31:01.093Z,97663.36
2019-05-09T13:33:51.818Z,97657.46
2019-05-09T13:36:44.348Z,97653.11
2019-05-09T13:39:35.468Z,97650.09
2019-05-09T13:42:28.475Z,97646.72
2019-05-09T13:45:18.674Z,97648.80
2019-05-09T13:48:26.463Z,97649.30
2019-05-09T13:51:01.313Z,97639.05
2019-05-09T13:53:53.772Z,97645.95
2019-05-09T13:56:44.930Z,97647.88
2019-05-09T13:59:37.470Z,97643.41
2019-05-09T14:02:29.170Z,97650.31
2019-05-09T14:05:19.509Z,97665.67
2019-05-09T14:08:11.715Z,97662.14
2019-05-09T14:11:02.654Z,97661.34
2019-05-09T14:13:53.708Z,97664.53
2019-05-09T14:16:44.009Z,97658.93
2019-05-09T14:19:45.100Z,97667.92
2019-05-09T14:22:26.275Z,97671.77
2019-05-09T14:25:19.499Z,97672.88
2019-05-09T14:28:08.968Z,97674.98
2019-05-09T14:30:59.537Z,97672.88
2019-05-09T14:33:50.565Z,97681.53
2019-05-09T14:36:45.361Z,97690.83
2019-05-09T14:39:33.177Z,97692.59
2019-05-09T14:42:24.159Z,97688.41
2019-05-09T14:45:14.571Z,97694.34
2019-05-09T14:48:07.951Z,97704.64
2019-05-09T14:50:59.411Z,97703.52
2019-05-09T14:53:49.982Z,97709.29
2019-05-09T14:56:42.557Z,97712.66
2019-05-09T14:59:34.202Z,97712.36
2019-05-09T15:02:25.345Z,97721.64
2019-05-09T15:05:18.877Z,97720.03
2019-05-09T15:08:08.756Z,97728.69
2019-05-09T15:10:59.031Z,97736.38
2019-05-09T15:13:49.247Z,97737.80
2019-05-09T15:16:40.269Z,97738.47
2019-05-09T15:19:30.698Z,97742.63
2019-05-09T15:22:21.326Z,97742.94
2019-05-09T15:25:12.332Z,97749.51
2019-05-09T15:28:03.232Z,97768.44
2019-05-09T15:30:54.433Z,97771.64
2019-05-09T15:33:44.666Z,97768.76
2019-05-09T15:36:37.971Z,97796.00
2019-05-09T15:39:27.959Z,97791.19
2019-05-09T15:42:19.251Z,97801.11
2019-05-09T15:45:09.413Z,97803.20
2019-05-09T15:48:00.496Z,97804.83
2019-05-09T15:50:51.891Z,97812.98
2019-05-09T15:53:42.761Z,97822.47
2019-05-09T15:56:33.079Z,97828.07
2019-05-09T15:59:23.776Z,97833.53
2019-05-09T16:02:14.712Z,97844.76
2019-05-09T16:05:09.891Z,97841.42
2019-05-09T16:07:58.723Z,97846.06
2019-05-09T16:10:49.711Z,97849.14
2019-05-09T16:13:40.839Z,97856.20
2019-05-09T16:16:31.467Z,97861.83
2019-05-09T16:19:22.405Z,97867.78
2019-05-09T16:22:12.898Z,97878.21
2019-05-09T16:25:04.122Z,97881.42
2019-05-09T16:27:55.355Z,97884.30
2019-05-09T16:30:48.199Z,97886.06
2019-05-09T16:33:37.920Z,97890.41
2019-05-09T16:36:28.381Z,97895.72
2019-05-09T16:39:18.710Z,97903.39
2019-05-09T16:42:09.307Z,97908.88
2019-05-09T16:45:00.680Z,97912.08
2019-05-09T16:47:52.050Z,97913.21
2019-05-09T16:50:59.432Z,97916.23
2019-05-09T16:53:34.901Z,97910.78
2019-05-09T16:56:25.052Z,97915.75
2019-05-09T16:59:17.896Z,97921.83
2019-05-09T17:02:19.909Z,97924.24
2019-05-09T17:05:00.921Z,97936.08
2019-05-09T17:07:52.426Z,97939.27
2019-05-09T17:10:43.734Z,97940.88
2019-05-09T17:13:33.909Z,97949.20
2019-05-09T17:16:25.100Z,97950.01
2019-05-09T17:19:19.190Z,97958.02
2019-05-09T17:22:13.855Z,97962.00
2019-05-09T17:25:05.016Z,97965.83
2019-05-09T17:27:59.253Z,97968.55
2019-05-09T17:30:49.318Z,97976.06
2019-05-09T17:33:40.562Z,97981.01
2019-05-09T17:36:30.931Z,97987.43
2019-05-09T17:39:22.120Z,97995.09
2019-05-09T17:42:13.233Z,97997.50
2019-05-09T17:45:03.361Z,98004.22
2019-05-09T17:47:54.553Z,98006.29
2019-05-09T17:50:45.830Z,98018.31
2019-05-09T17:53:37.129Z,98023.75
2019-05-09T17:56:27.444Z,98034.81
2019-05-09T17:59:18.688Z,98034.00
2019-05-09T18:02:10.458Z,98046.49
2019-05-09T18:05:01.763Z,98049.67
2019-05-09T18:07:53.634Z,98051.76
2019-05-09T18:10:44.265Z,98060.55
2019-05-09T18:13:34.803Z,98053.96
2019-05-09T18:16:28.505Z,98072.53
2019-05-09T18:19:20.050Z,98075.39
2019-05-09T18:22:11.264Z,98082.13
2019-05-09T18:25:02.033Z,98078.44
2019-05-09T18:27:53.620Z,98080.80
2019-05-09T18:30:44.220Z,98086.57
2019-05-09T18:33:42.072Z,98092.69
2019-05-09T18:36:33.272Z,98087.53
2019-05-09T18:39:24.723Z,98098.91
2019-05-09T18:42:17.718Z,98107.87
2019-05-09T18:45:08.248Z,98116.05
2019-05-09T18:47:59.252Z,98116.50
2019-05-09T18:50:49.647Z,98125.31
2019-05-09T18:53:40.576Z,98128.02
2019-05-09T18:56:32.723Z,98128.50
2019-05-09T18:59:24.059Z,98141.32
2019-05-09T19:02:14.803Z,98148.83
2019-05-09T19:05:06.896Z,98148.01
2019-05-09T19:07:57.286Z,98153.80
2019-05-09T19:10:51.958Z,98154.41
2019-05-09T19:13:40.375Z,98163.06
2019-05-09T19:16:40.454Z,98165.15
2019-05-09T19:19:44.011Z,98172.20
2019-05-09T19:22:35.360Z,98177.16
2019-05-09T19:25:26.416Z,98182.75
2019-05-09T19:28:17.653Z,98186.92
2019-05-09T19:31:09.236Z,98192.03
2019-05-09T19:34:00.430Z,98203.42
2019-05-09T19:36:51.686Z,98211.59
2019-05-09T19:39:42.397Z,98212.20
2019-05-09T19:42:33.637Z,98221.52
2019-05-09T19:45:24.675Z,98221.02
2019-05-09T19:48:15.925Z,98224.55
2019-05-09T19:51:06.261Z,98225.46
2019-05-09T19:53:57.173Z,98236.22
2019-05-09T19:56:47.832Z,98248.83
2019-05-09T19:59:38.931Z,98252.53
2019-05-09T20:02:29.162Z,98252.81
2019-05-09T20:05:20.409Z,98255.20
2019-05-09T20:08:11.694Z,98264.65
2019-05-09T20:11:10.374Z,98270.52
2019-05-09T20:14:25.535Z,98277.09
2019-05-09T20:17:16.276Z,98282.84
2019-05-09T20:20:06.727Z,98285.54
2019-05-09T20:22:57.013Z,98287.14
2019-05-09T20:25:47.138Z,98291.78
2019-05-09T20:28:38.725Z,98293.23
2019-05-09T20:31:29.969Z,98299.01
2019-05-09T20:34:21.210Z,98302.83
2019-05-09T20:37:12.582Z,98304.30
2019-05-09T20:40:04.025Z,98303.64
2019-05-09T20:42:55.767Z,98306.36
2019-05-09T20:45:46.490Z,98307.31
2019-05-09T20:48:37.779Z,98308.45
2019-05-09T20:51:29.323Z,98311.28
2019-05-09T20:54:21.373Z,98308.38
2019-05-09T20:57:12.234Z,98304.69
2019-05-09T21:00:03.865Z,98310.42
2019-05-09T21:02:57.010Z,98312.48
2019-05-09T21:05:47.370Z,98317.28
2019-05-09T21:08:38.502Z,98319.36
2019-05-09T21:11:29.969Z,98322.38
2019-05-09T21:14:20.597Z,98327.53
2019-05-09T21:17:12.063Z,98329.26
2019-05-09T21:20:03.655Z,98336.30
2019-05-09T21:22:55.528Z,98343.51
2019-05-09T21:25:46.803Z,98348.74
2019-05-09T21:28:38.259Z,98354.98
2019-05-09T21:31:29.098Z,98354.19
2019-05-09T21:34:21.380Z,98361.23
2019-05-09T21:37:13.889Z,98366.02
2019-05-09T21:40:05.153Z,98376.06
2019-05-09T21:42:56.386Z,98380.89
2019-05-09T21:45:47.890Z,98386.01
2019-05-09T21:48:39.071Z,98390.66
2019-05-09T21:51:29.548Z,98386.97
2019-05-09T21:54:20.914Z,98400.76
2019-05-09T21:57:11.599Z,98402.05
2019-05-09T22:00:02.527Z,98405.67
2019-05-09T22:02:55.544Z,98407.78
2019-05-09T22:05:45.671Z,98409.52
2019-05-09T22:08:37.074Z,98418.36
2019-05-09T22:11:27.423Z,98417.85
2019-05-09T22:14:17.578Z,98421.03
2019-05-09T22:17:14.403Z,98426.79
2019-05-09T22:20:05.475Z,98423.54
2019-05-09T22:22:57.485Z,98427.09
2019-05-09T22:25:48.681Z,98426.11
2019-05-09T22:28:38.856Z,98427.56
2019-05-09T22:31:29.307Z,98427.06
2019-05-09T22:34:20.326Z,98433.80
2019-05-09T22:37:11.590Z,98433.00
2019-05-09T22:40:03.698Z,98437.63
2019-05-09T22:42:54.903Z,98440.19
2019-05-09T22:45:46.559Z,98433.45
2019-05-09T22:48:36.918Z,98435.37
2019-05-09T22:51:28.207Z,98438.70
2019-05-09T22:54:19.006Z,98447.53
2019-05-09T22:57:10.188Z,98445.43
2019-05-09T23:00:00.937Z,98446.05
2019-05-09T23:02:53.576Z,98452.77
2019-05-09T23:05:44.863Z,98459.34
2019-05-09T23:08:35.225Z,98462.37
2019-05-09T23:11:25.737Z,98460.62
2019-05-09T23:14:16.083Z,98462.86
2019-05-09T23:17:07.457Z,98463.98
2019-05-09T23:19:57.838Z,98470.36
2019-05-09T23:22:48.847Z,98473.21
2019-05-09T23:25:38.968Z,98467.91
2019-05-09T23:28:29.475Z,98475.11
2019-05-09T23:31:27.554Z,98481.68
2019-05-09T23:34:17.912Z,98487.25
2019-05-09T23:37:08.922Z,98493.98
2019-05-09T23:40:00.152Z,98497.18
2019-05-09T23:42:51.373Z,98503.53
2019-05-09T23:45:41.564Z,98504.17
2019-05-09T23:48:32.821Z,98506.57
2019-05-09T23:51:24.744Z,98506.55
2019-05-09T23:54:45.040Z,98510.70
2019-05-09T23:57:43.989Z,98510.33
